createdAt,value
2018-12-21T00:02:25.998Z,7.00
2018-12-21T00:04:52.835Z,7.80
2018-12-21T00:07:19.584Z,7.22
2018-12-21T00:09:46.299Z,8.05
2018-12-21T00:12:13.036Z,7.22
2018-12-21T00:14:39.847Z,7.97
2018-12-21T00:17:06.617Z,8.03
2018-12-21T00:19:33.328Z,8.30
2018-12-21T00:22:00.096Z,7.35
2018-12-21T00:24:26.849Z,7.95
2018-12-21T00:26:53.575Z,6.60
2018-12-21T00:29:20.355Z,7.00
2018-12-21T00:31:52.929Z,6.22
2018-12-21T00:34:25.304Z,6.87
2018-12-21T00:36:57.906Z,7.50
2018-12-21T00:39:30.526Z,7.10
2018-12-21T00:41:56.878Z,6.40
2018-12-21T00:44:25.537Z,6.60
2018-12-21T00:46:53.630Z,5.83
2018-12-21T00:49:20.997Z,6.22
2018-12-21T00:51:47.726Z,5.97
2018-12-21T00:54:14.499Z,6.45
2018-12-21T00:56:41.209Z,6.37
2018-12-21T00:59:07.915Z,5.95
2018-12-21T01:01:34.713Z,5.40
2018-12-21T01:04:01.465Z,5.67
2018-12-21T01:06:28.181Z,5.92
2018-12-21T01:08:54.931Z,5.65
2018-12-21T01:11:21.708Z,5.17
2018-12-21T01:13:48.419Z,4.70
2018-12-21T01:16:31.496Z,5.03
2018-12-21T01:18:58.317Z,5.25
2018-12-21T01:21:25.028Z,4.75
2018-12-21T01:23:51.785Z,5.05
2018-12-21T01:26:18.620Z,4.62
2018-12-21T01:28:45.329Z,4.65
2018-12-21T01:31:12.104Z,4.25
2018-12-21T01:33:38.840Z,4.05
2018-12-21T01:36:05.549Z,3.83
2018-12-21T01:38:32.342Z,3.60
2018-12-21T01:40:59.065Z,4.00
2018-12-21T01:43:25.824Z,3.20
2018-12-21T01:45:52.582Z,3.12
2018-12-21T01:48:19.287Z,4.00
2018-12-21T01:50:46.004Z,3.33
2018-12-21T01:53:12.724Z,3.75
2018-12-21T01:55:39.477Z,3.52
2018-12-21T01:58:06.180Z,3.55
2018-12-21T02:00:32.928Z,3.65
2018-12-21T02:02:59.671Z,3.30
2018-12-21T02:05:26.806Z,2.92
2018-12-21T02:07:55.817Z,2.95
2018-12-21T02:10:23.777Z,4.08
2018-12-21T02:12:53.602Z,2.98
2018-12-21T02:15:23.623Z,3.80
2018-12-21T02:17:50.851Z,3.42
2018-12-21T02:20:18.157Z,3.27
2018-12-21T02:22:44.966Z,4.03
2018-12-21T02:25:11.744Z,3.25
2018-12-21T02:27:38.470Z,3.40
2018-12-21T02:30:06.036Z,3.50
2018-12-21T02:32:32.851Z,3.35
2018-12-21T02:34:59.568Z,2.92
2018-12-21T02:37:26.276Z,2.98
2018-12-21T02:39:53.049Z,2.30
2018-12-21T02:42:19.761Z,2.70
2018-12-21T02:44:46.473Z,3.45
2018-12-21T02:47:13.215Z,2.80
2018-12-21T02:49:39.928Z,2.83
2018-12-21T02:52:06.636Z,2.80
2018-12-21T02:54:33.376Z,2.80
2018-12-21T02:57:00.211Z,3.02
2018-12-21T02:59:26.953Z,3.52
2018-12-21T03:01:53.681Z,2.75
2018-12-21T03:04:20.394Z,3.27
2018-12-21T03:06:47.232Z,3.75
2018-12-21T03:09:13.935Z,3.77
2018-12-21T03:11:40.644Z,3.20
2018-12-21T03:14:07.382Z,4.08
2018-12-21T03:16:34.103Z,3.50
2018-12-21T03:19:00.866Z,4.10
2018-12-21T03:21:27.615Z,4.37
2018-12-21T03:23:54.334Z,4.15
2018-12-21T03:26:21.053Z,4.42
2018-12-21T03:28:47.789Z,4.67
2018-12-21T03:31:14.543Z,4.50
2018-12-21T03:33:41.269Z,4.30
2018-12-21T03:36:07.982Z,4.55
2018-12-21T03:38:34.803Z,4.45
2018-12-21T03:41:01.625Z,4.40
2018-12-21T03:43:28.338Z,4.42
2018-12-21T03:45:55.077Z,4.40
2018-12-21T03:48:21.774Z,4.45
2018-12-21T03:50:48.492Z,4.55
2018-12-21T03:53:15.206Z,7.55
2018-12-21T03:55:41.934Z,4.10
2018-12-21T03:58:08.869Z,4.15
2018-12-21T04:00:35.588Z,4.25
2018-12-21T04:03:02.297Z,5.20
2018-12-21T04:05:29.040Z,4.87
2018-12-21T04:07:55.751Z,5.30
2018-12-21T04:10:22.462Z,4.70
2018-12-21T04:12:49.186Z,4.92
2018-12-21T04:15:15.899Z,4.70
2018-12-21T04:17:42.633Z,4.78
2018-12-21T04:20:09.422Z,5.12
2018-12-21T04:22:38.423Z,4.87
2018-12-21T04:25:09.714Z,5.00
2018-12-21T04:27:46.297Z,5.25
2018-12-21T04:30:13.080Z,5.55
2018-12-21T04:32:39.844Z,5.47
2018-12-21T04:35:06.683Z,4.67
2018-12-21T04:37:33.410Z,5.28
2018-12-21T04:40:00.251Z,5.40
2018-12-21T04:42:27.018Z,5.10
2018-12-21T04:44:53.729Z,4.67
2018-12-21T04:47:20.524Z,4.90
2018-12-21T04:49:47.253Z,5.00
2018-12-21T04:52:13.982Z,5.15
2018-12-21T04:54:40.689Z,5.00
2018-12-21T04:57:07.450Z,4.65
2018-12-21T04:59:34.232Z,4.92
2018-12-21T05:02:01.036Z,5.80
2018-12-21T05:04:27.888Z,6.20
2018-12-21T05:06:54.622Z,5.15
2018-12-21T05:09:21.410Z,4.50
2018-12-21T05:11:48.181Z,4.85
2018-12-21T05:14:14.919Z,4.65
2018-12-21T05:16:41.649Z,5.05
2018-12-21T05:19:08.393Z,4.30
2018-12-21T05:21:35.098Z,4.05
2018-12-21T05:24:01.828Z,4.50
2018-12-21T05:26:28.545Z,3.75
2018-12-21T05:28:55.286Z,4.60
2018-12-21T05:31:28.230Z,4.90
2018-12-21T05:33:50.825Z,4.35
2018-12-21T05:36:17.553Z,3.98
2018-12-21T05:38:44.293Z,3.67
2018-12-21T05:41:10.999Z,4.92
2018-12-21T05:43:37.713Z,3.75
2018-12-21T05:46:04.469Z,4.35
2018-12-21T05:48:31.200Z,4.40
2018-12-21T05:50:57.980Z,4.47
2018-12-21T05:53:24.709Z,4.00
2018-12-21T05:55:51.474Z,4.37
2018-12-21T05:58:18.179Z,4.85
2018-12-21T06:00:44.898Z,4.28
2018-12-21T06:03:11.631Z,3.70
2018-12-21T06:05:38.376Z,4.62
2018-12-21T06:08:05.090Z,3.95
2018-12-21T06:10:31.819Z,4.22
2018-12-21T06:12:58.538Z,6.00
2018-12-21T06:15:25.257Z,4.95
2018-12-21T06:17:51.976Z,4.58
2018-12-21T06:20:18.717Z,4.28
2018-12-21T06:22:45.434Z,4.50
2018-12-21T06:25:12.136Z,4.17
2018-12-21T06:27:38.864Z,4.10
2018-12-21T06:30:06.648Z,4.10
2018-12-21T06:32:46.708Z,4.60
2018-12-21T06:35:13.444Z,4.87
2018-12-21T06:37:40.239Z,4.22
2018-12-21T06:40:07.052Z,5.12
2018-12-21T06:42:33.764Z,4.05
2018-12-21T06:45:00.477Z,4.70
2018-12-21T06:47:27.222Z,4.03
2018-12-21T06:49:53.929Z,4.28
2018-12-21T06:52:20.638Z,4.60
2018-12-21T06:54:47.465Z,4.20
2018-12-21T06:57:14.193Z,4.45
2018-12-21T06:59:40.902Z,4.60
2018-12-21T07:02:07.668Z,4.08
2018-12-21T07:04:34.469Z,3.60
2018-12-21T07:07:01.208Z,4.22
2018-12-21T07:09:29.096Z,4.28
2018-12-21T07:14:44.463Z,3.80
2018-12-21T07:17:11.173Z,4.15
2018-12-21T07:19:37.882Z,4.30
2018-12-21T07:22:04.614Z,3.90
2018-12-21T07:24:31.366Z,3.92
2018-12-21T07:26:58.221Z,4.33
2018-12-21T07:29:24.967Z,4.05
2018-12-21T07:31:51.781Z,4.20
2018-12-21T07:34:18.496Z,4.50
2018-12-21T07:36:45.236Z,4.33
2018-12-21T07:39:11.944Z,4.35
2018-12-21T07:41:38.694Z,3.85
2018-12-21T07:44:05.459Z,4.42
2018-12-21T07:46:32.188Z,5.00
2018-12-21T07:48:58.908Z,3.70
2018-12-21T07:51:25.737Z,3.92
2018-12-21T07:53:52.448Z,4.20
2018-12-21T07:56:19.149Z,4.00
2018-12-21T07:58:45.893Z,4.30
2018-12-21T08:01:12.611Z,4.30
2018-12-21T08:03:39.348Z,4.53
2018-12-21T08:06:06.059Z,4.50
2018-12-21T08:08:32.759Z,5.40
2018-12-21T08:10:59.481Z,4.20
2018-12-21T08:13:26.200Z,5.08
2018-12-21T08:15:52.915Z,4.67
2018-12-21T08:18:19.681Z,5.20
2018-12-21T08:20:46.380Z,4.50
2018-12-21T08:23:13.082Z,4.55
2018-12-21T08:25:39.875Z,3.90
2018-12-21T08:28:06.601Z,4.25
2018-12-21T08:30:33.327Z,5.60
2018-12-21T08:33:00.042Z,4.40
2018-12-21T08:35:26.876Z,5.12
2018-12-21T08:37:53.705Z,5.05
2018-12-21T08:40:20.415Z,5.60
2018-12-21T08:42:47.161Z,5.50
2018-12-21T08:45:13.928Z,5.05
2018-12-21T08:47:40.665Z,6.15
2018-12-21T08:50:07.748Z,5.25
2018-12-21T08:52:34.464Z,5.75
2018-12-21T08:55:01.248Z,5.72
2018-12-21T08:57:27.960Z,6.65
2018-12-21T08:59:54.677Z,6.00
2018-12-21T12:01:33.160Z,2.42
2018-12-21T12:03:59.885Z,2.40
2018-12-21T12:06:26.604Z,2.72
2018-12-21T12:08:53.350Z,2.60
2018-12-21T12:11:20.078Z,2.65
2018-12-21T12:13:46.812Z,2.85
2018-12-21T12:16:13.649Z,2.67
2018-12-21T12:18:40.376Z,2.62
2018-12-21T12:21:07.143Z,2.67
2018-12-21T12:23:33.884Z,2.60
2018-12-21T12:26:00.622Z,2.50
2018-12-21T12:28:27.412Z,2.67
2018-12-21T12:30:54.167Z,2.90
2018-12-21T12:33:20.897Z,4.28
2018-12-21T12:35:47.648Z,2.70
2018-12-21T12:38:14.361Z,2.87
2018-12-21T12:40:41.134Z,2.40
2018-12-21T12:43:07.876Z,2.70
2018-12-21T12:45:34.617Z,3.10
2018-12-21T12:48:01.908Z,2.85
2018-12-21T12:50:30.890Z,2.58
2018-12-21T12:52:58.871Z,2.75
2018-12-21T12:55:27.342Z,2.30
2018-12-21T12:57:54.177Z,3.27
2018-12-21T13:00:20.897Z,2.72
2018-12-21T13:02:47.697Z,2.70
2018-12-21T13:05:14.505Z,2.80
2018-12-21T13:07:41.225Z,2.45
2018-12-21T13:10:08.781Z,2.75
2018-12-21T13:12:35.514Z,2.70
2018-12-21T13:15:02.247Z,2.58
2018-12-21T13:17:28.984Z,2.30
2018-12-21T13:19:55.731Z,2.45
2018-12-21T13:22:22.471Z,2.30
2018-12-21T13:24:52.130Z,2.30
2018-12-21T13:27:19.134Z,2.35
2018-12-21T13:29:46.022Z,2.50
2018-12-21T13:32:12.764Z,2.30
2018-12-21T13:34:39.495Z,2.37
2018-12-21T13:37:06.212Z,2.40
2018-12-21T13:39:33.709Z,2.85
2018-12-21T13:42:00.639Z,2.60
2018-12-21T13:44:27.360Z,3.27
2018-12-21T13:46:54.089Z,3.20
2018-12-21T13:49:20.833Z,2.40
2018-12-21T13:51:47.576Z,2.00
2018-12-21T13:54:14.295Z,1.80
2018-12-21T13:56:43.016Z,1.77
2018-12-21T13:59:09.780Z,1.90
2018-12-21T14:01:36.510Z,2.15
2018-12-21T14:04:03.242Z,2.15
2018-12-21T14:06:30.109Z,2.12
2018-12-21T14:08:56.923Z,2.08
2018-12-21T14:11:23.645Z,2.20
2018-12-21T14:13:50.521Z,2.02
2018-12-21T14:16:17.239Z,2.05
2018-12-21T14:18:44.620Z,2.50
2018-12-21T14:21:11.707Z,2.50
2018-12-21T14:23:38.442Z,2.30
2018-12-21T14:26:05.214Z,3.65
2018-12-21T14:28:31.960Z,3.05
2018-12-21T14:30:58.703Z,2.72
2018-12-21T14:33:25.454Z,2.30
2018-12-21T14:35:52.291Z,2.30
2018-12-21T14:38:19.761Z,2.50
2018-12-21T14:40:48.318Z,2.50
2018-12-21T14:43:16.353Z,2.20
2018-12-21T14:45:43.270Z,2.33
2018-12-21T14:48:10.049Z,2.70
2018-12-21T14:50:38.335Z,2.77
2018-12-21T14:53:05.177Z,2.98
2018-12-21T14:55:37.509Z,2.70
2018-12-21T14:58:00.685Z,2.90
2018-12-21T15:00:27.401Z,2.95
2018-12-21T15:02:54.138Z,3.02
2018-12-21T15:05:20.865Z,3.58
2018-12-21T15:07:47.590Z,3.02
2018-12-21T15:10:14.303Z,3.37
2018-12-21T15:12:41.065Z,3.20
2018-12-21T15:15:07.833Z,3.30
2018-12-21T15:17:34.532Z,3.50
2018-12-21T15:20:01.294Z,3.80
2018-12-21T15:22:28.017Z,4.45
2018-12-21T15:24:54.736Z,4.20
2018-12-21T15:27:21.485Z,4.20
2018-12-21T15:29:48.200Z,4.35
2018-12-21T15:32:14.917Z,4.05
2018-12-21T15:34:41.650Z,4.75
2018-12-21T15:37:08.483Z,3.95
2018-12-21T15:39:35.213Z,4.20
2018-12-21T15:42:01.916Z,4.50
2018-12-21T15:44:28.657Z,4.33
2018-12-21T15:46:55.410Z,3.65
2018-12-21T15:49:22.158Z,3.70
2018-12-21T15:51:48.877Z,3.15
2018-12-21T15:54:15.652Z,3.37
2018-12-21T15:56:42.356Z,3.17
2018-12-21T15:59:09.067Z,3.17
2018-12-21T16:01:36.974Z,3.80
2018-12-21T16:04:04.186Z,2.90
2018-12-21T16:06:30.899Z,3.90
2018-12-21T16:08:57.623Z,4.70
2018-12-21T16:11:24.338Z,3.50
2018-12-21T16:13:51.082Z,3.77
2018-12-21T16:16:17.796Z,3.12
2018-12-21T16:18:44.520Z,2.65
2018-12-21T16:21:11.261Z,2.52
2018-12-21T16:23:37.971Z,2.90
2018-12-21T16:26:04.714Z,3.90
2018-12-21T16:28:31.479Z,2.20
2018-12-21T16:30:58.264Z,2.27
2018-12-21T16:33:24.982Z,2.50
2018-12-21T16:35:51.710Z,2.50
2018-12-21T16:38:18.564Z,2.30
2018-12-21T16:40:45.301Z,3.08
2018-12-21T16:43:12.028Z,2.30
2018-12-21T16:45:38.782Z,2.30
2018-12-21T16:48:05.525Z,2.50
2018-12-21T16:50:32.252Z,2.30
2018-12-21T16:52:59.009Z,2.25
2018-12-21T16:55:25.746Z,3.72
2018-12-21T16:57:52.478Z,2.65
2018-12-21T17:00:19.216Z,2.60
2018-12-21T17:02:45.969Z,2.60
2018-12-21T17:05:12.818Z,3.45
2018-12-21T17:07:39.575Z,3.20
2018-12-21T17:10:13.875Z,3.98
2018-12-21T17:12:43.469Z,2.95
2018-12-21T17:15:22.292Z,3.30
2018-12-21T17:17:54.358Z,4.22
2018-12-21T17:20:21.269Z,3.98
2018-12-21T17:22:47.984Z,4.20
2018-12-21T17:25:14.712Z,4.62
2018-12-21T17:27:41.465Z,4.42
2018-12-21T17:30:09.004Z,3.83
2018-12-21T17:32:35.721Z,3.80
2018-12-21T17:35:02.456Z,3.40
2018-12-21T17:37:29.179Z,3.20
2018-12-21T17:39:55.914Z,4.67
2018-12-21T17:42:22.805Z,3.58
2018-12-21T17:44:49.522Z,4.97
2018-12-21T17:47:16.243Z,4.37
2018-12-21T17:49:42.977Z,3.27
2018-12-21T17:52:09.676Z,3.85
2018-12-21T17:54:36.423Z,4.15
2018-12-21T17:57:03.152Z,3.80
2018-12-21T17:59:29.871Z,3.98
2018-12-21T18:01:56.636Z,3.65
2018-12-21T18:04:23.515Z,3.70
2018-12-21T18:06:50.301Z,4.33
2018-12-21T18:09:17.061Z,4.30
2018-12-21T18:11:43.813Z,5.62
2018-12-21T18:14:10.521Z,3.90
2018-12-21T18:16:37.257Z,4.30
2018-12-21T18:19:03.996Z,4.83
2018-12-21T18:21:31.474Z,4.72
2018-12-21T18:23:58.172Z,4.25
2018-12-21T18:26:24.924Z,4.30
2018-12-21T18:28:51.629Z,4.20
2018-12-21T18:31:18.444Z,4.50
2018-12-21T18:33:45.164Z,4.85
2018-12-21T18:36:11.876Z,5.95
2018-12-21T18:38:38.639Z,4.67
2018-12-21T18:41:05.352Z,6.55
2018-12-21T18:43:32.112Z,5.08
2018-12-21T18:45:58.909Z,4.80
2018-12-21T18:48:25.615Z,4.67
2018-12-21T18:50:52.344Z,6.45
2018-12-21T18:53:19.076Z,5.15
2018-12-21T18:55:46.138Z,5.42
2018-12-21T18:58:12.886Z,6.05
2018-12-21T19:00:39.624Z,5.58
2018-12-21T19:03:06.353Z,5.10
2018-12-21T19:05:33.107Z,4.83
2018-12-21T19:07:59.838Z,4.28
2018-12-21T19:10:26.569Z,4.62
2018-12-21T19:12:53.321Z,4.20
2018-12-21T19:15:20.145Z,4.15
2018-12-21T19:17:46.888Z,4.30
2018-12-21T19:20:13.703Z,5.20
2018-12-21T19:22:40.408Z,4.45
2018-12-21T19:25:07.381Z,3.80
2018-12-21T19:27:34.129Z,3.20
2018-12-21T19:30:00.848Z,4.22
2018-12-21T19:32:27.565Z,3.08
2018-12-21T19:34:54.296Z,3.80
2018-12-21T19:37:21.043Z,3.40
2018-12-21T19:39:47.754Z,3.25
2018-12-21T19:42:14.474Z,3.45
2018-12-21T19:44:41.197Z,3.37
2018-12-21T19:47:07.900Z,3.75
2018-12-21T19:49:34.628Z,3.22
2018-12-21T19:52:01.355Z,3.02
2018-12-21T19:54:28.081Z,3.15
2018-12-21T19:57:04.196Z,3.50
2018-12-21T19:59:25.282Z,3.33
2018-12-21T20:01:52.025Z,3.72
2018-12-21T20:04:18.728Z,5.20
2018-12-21T20:06:45.510Z,4.20
2018-12-21T20:09:12.228Z,3.83
2018-12-21T20:11:38.956Z,4.00
2018-12-21T20:14:05.677Z,3.90
2018-12-21T20:16:32.433Z,4.12
2018-12-21T20:18:59.140Z,4.47
2018-12-21T20:21:25.866Z,3.92
2018-12-21T20:23:52.611Z,5.37
2018-12-21T20:26:19.339Z,5.00
2018-12-21T20:28:46.077Z,4.28
2018-12-21T20:31:12.844Z,4.92
2018-12-21T20:33:39.777Z,5.30
2018-12-21T20:36:07.339Z,4.97
2018-12-21T20:38:35.274Z,5.10
2018-12-21T20:41:04.535Z,5.20
2018-12-21T20:43:31.550Z,4.58
2018-12-21T20:46:06.911Z,4.50
2018-12-21T20:48:41.087Z,5.45
2018-12-21T20:51:10.141Z,4.50
2018-12-21T20:53:37.713Z,4.20
2018-12-21T20:56:05.938Z,5.62
2018-12-21T21:01:19.643Z,5.25
2018-12-21T21:03:49.012Z,5.37
2018-12-21T21:06:19.215Z,5.42
2018-12-21T21:08:46.509Z,5.47
2018-12-21T21:11:13.673Z,6.30
2018-12-21T21:13:41.012Z,5.28
2018-12-21T21:16:07.857Z,5.65
2018-12-21T21:18:34.613Z,5.90
2018-12-21T21:21:01.340Z,6.60
2018-12-21T21:23:28.075Z,6.35
2018-12-21T21:25:54.794Z,6.67
2018-12-21T21:28:21.542Z,7.55
2018-12-21T21:30:48.248Z,7.12
2018-12-21T21:33:15.028Z,6.62
2018-12-21T21:35:41.756Z,7.37
2018-12-21T21:38:08.545Z,7.75
2018-12-21T21:40:35.441Z,6.58
2018-12-21T21:43:02.297Z,7.28
2018-12-21T21:45:30.117Z,10.35
2018-12-21T21:47:58.584Z,8.43
2018-12-21T21:50:25.333Z,9.03
2018-12-21T21:52:52.045Z,8.35
2018-12-21T21:55:18.772Z,9.63
2018-12-21T21:57:45.528Z,6.25
2018-12-21T22:00:12.355Z,7.67
2018-12-21T22:02:39.091Z,5.75
2018-12-21T22:05:05.860Z,5.90
2018-12-21T22:07:32.579Z,5.70
2018-12-21T22:09:59.344Z,4.40
2018-12-21T22:12:26.058Z,6.65
2018-12-21T22:14:52.916Z,4.53
2018-12-21T22:17:19.627Z,4.30
2018-12-21T22:19:46.328Z,3.45
2018-12-21T22:22:13.979Z,3.30
2018-12-21T22:24:41.470Z,3.17
2018-12-21T22:27:08.206Z,3.30
2018-12-21T22:29:34.931Z,2.60
2018-12-21T22:32:01.665Z,2.70
2018-12-21T22:34:28.371Z,2.75
2018-12-21T22:36:55.100Z,2.98
2018-12-21T22:39:21.809Z,2.85
2018-12-21T22:41:48.605Z,2.90
2018-12-21T22:44:15.467Z,2.77
2018-12-21T22:46:42.190Z,2.47
2018-12-21T22:49:08.914Z,2.80
2018-12-21T22:51:35.625Z,2.55
2018-12-21T22:54:02.378Z,3.10
2018-12-21T22:56:29.139Z,2.87
2018-12-21T22:58:55.857Z,3.08
2018-12-21T23:01:22.792Z,3.10
2018-12-21T23:03:49.507Z,2.70
2018-12-21T23:06:17.074Z,3.37
2018-12-21T23:08:43.821Z,3.10
2018-12-21T23:11:10.528Z,3.60
2018-12-21T23:13:37.288Z,3.05
2018-12-21T23:16:04.072Z,3.20
2018-12-21T23:18:30.800Z,3.17
2018-12-21T23:20:57.517Z,3.72
2018-12-21T23:23:24.224Z,3.27
2018-12-21T23:25:50.967Z,2.90
2018-12-21T23:28:17.701Z,2.70
2018-12-21T23:30:44.429Z,2.90
2018-12-21T23:33:11.175Z,2.42
2018-12-21T23:35:37.945Z,2.83
2018-12-21T23:38:04.692Z,2.67
2018-12-21T23:40:31.402Z,2.77
2018-12-21T23:42:58.137Z,3.12
2018-12-21T23:45:24.853Z,2.90
2018-12-21T23:47:51.572Z,2.62
2018-12-21T23:50:18.322Z,3.08
2018-12-21T23:52:45.050Z,2.85
2018-12-21T23:55:11.788Z,3.02
2018-12-21T23:57:38.543Z,3.10
